sensor_id;sensor_type;location;lat;lon;timestamp;temperature;humidity
429;DHT22;201;48.758;9.290;2023-07-13T00:01:29;20.00;1.00
429;DHT22;201;48.758;9.290;2023-07-13T00:03:57;19.90;1.00
429;DHT22;201;48.758;9.290;2023-07-13T00:06:23;19.80;1.00
429;DHT22;201;48.758;9.290;2023-07-13T00:08:48;19.80;1.00
429;DHT22;201;48.758;9.290;2023-07-13T00:11:15;19.70;1.00
429;DHT22;201;48.758;9.290;2023-07-13T00:13:42;19.70;1.00
429;DHT22;201;48.758;9.290;2023-07-13T00:16:09;19.70;1.00
429;DHT22;201;48.758;9.290;2023-07-13T00:18:35;19.60;1.00
429;DHT22;201;48.758;9.290;2023-07-13T00:21:02;19.60;1.00
429;DHT22;201;48.758;9.290;2023-07-13T00:23:41;19.50;1.00
429;DHT22;201;48.758;9.290;2023-07-13T00:26:09;19.50;1.00
429;DHT22;201;48.758;9.290;2023-07-13T00:28:35;19.50;1.00
429;DHT22;201;48.758;9.290;2023-07-13T00:31:01;19.40;1.00
429;DHT22;201;48.758;9.290;2023-07-13T00:33:28;19.30;1.00
429;DHT22;201;48.758;9.290;2023-07-13T00:35:55;19.30;1.00
429;DHT22;201;48.758;9.290;2023-07-13T00:38:21;19.30;1.00
429;DHT22;201;48.758;9.290;2023-07-13T00:40:47;19.20;1.00
429;DHT22;201;48.758;9.290;2023-07-13T00:43:15;19.20;1.00
429;DHT22;201;48.758;9.290;2023-07-13T00:48:10;19.20;1.00
429;DHT22;201;48.758;9.290;2023-07-13T00:50:37;19.10;1.00
429;DHT22;201;48.758;9.290;2023-07-13T00:53:03;19.10;1.00
429;DHT22;201;48.758;9.290;2023-07-13T00:55:29;19.10;1.00
429;DHT22;201;48.758;9.290;2023-07-13T00:57:55;19.00;1.00
429;DHT22;201;48.758;9.290;2023-07-13T01:00:22;19.00;1.00
429;DHT22;201;48.758;9.290;2023-07-13T01:02:48;18.90;1.00
429;DHT22;201;48.758;9.290;2023-07-13T01:05:17;18.90;1.00
429;DHT22;201;48.758;9.290;2023-07-13T01:07:44;18.80;1.00
429;DHT22;201;48.758;9.290;2023-07-13T01:10:11;18.70;1.00
429;DHT22;201;48.758;9.290;2023-07-13T01:12:37;18.70;1.00
429;DHT22;201;48.758;9.290;2023-07-13T01:15:03;18.60;1.00
429;DHT22;201;48.758;9.290;2023-07-13T01:17:31;18.60;1.00
429;DHT22;201;48.758;9.290;2023-07-13T01:19:57;18.60;1.00
429;DHT22;201;48.758;9.290;2023-07-13T01:22:23;18.60;1.00
429;DHT22;201;48.758;9.290;2023-07-13T01:24:51;18.50;1.00
429;DHT22;201;48.758;9.290;2023-07-13T01:27:23;18.50;1.00
429;DHT22;201;48.758;9.290;2023-07-13T01:29:50;18.50;1.00
429;DHT22;201;48.758;9.290;2023-07-13T01:32:20;18.50;1.00
429;DHT22;201;48.758;9.290;2023-07-13T01:34:48;18.60;1.00
429;DHT22;201;48.758;9.290;2023-07-13T01:37:15;18.60;1.00
429;DHT22;201;48.758;9.290;2023-07-13T01:39:40;18.60;1.00
429;DHT22;201;48.758;9.290;2023-07-13T01:42:06;18.60;1.00
429;DHT22;201;48.758;9.290;2023-07-13T01:44:31;18.50;1.00
429;DHT22;201;48.758;9.290;2023-07-13T01:46:57;18.40;1.00
429;DHT22;201;48.758;9.290;2023-07-13T01:49:23;18.40;1.00
429;DHT22;201;48.758;9.290;2023-07-13T01:51:48;18.30;1.00
429;DHT22;201;48.758;9.290;2023-07-13T01:54:14;18.20;1.00
429;DHT22;201;48.758;9.290;2023-07-13T01:56:39;18.20;1.00
429;DHT22;201;48.758;9.290;2023-07-13T01:59:07;18.10;1.00
429;DHT22;201;48.758;9.290;2023-07-13T02:01:33;18.10;1.00
429;DHT22;201;48.758;9.290;2023-07-13T02:03:58;18.10;1.00
429;DHT22;201;48.758;9.290;2023-07-13T02:06:24;18.00;1.00
429;DHT22;201;48.758;9.290;2023-07-13T02:08:49;18.00;1.00
429;DHT22;201;48.758;9.290;2023-07-13T02:11:15;17.90;1.00
429;DHT22;201;48.758;9.290;2023-07-13T02:13:40;17.90;1.00
429;DHT22;201;48.758;9.290;2023-07-13T02:16:06;17.80;1.00
429;DHT22;201;48.758;9.290;2023-07-13T02:18:32;17.80;1.00
429;DHT22;201;48.758;9.290;2023-07-13T02:20:57;17.80;1.00
429;DHT22;201;48.758;9.290;2023-07-13T02:23:23;17.80;1.00
429;DHT22;201;48.758;9.290;2023-07-13T02:25:49;17.70;1.00
429;DHT22;201;48.758;9.290;2023-07-13T02:28:14;17.70;1.00
429;DHT22;201;48.758;9.290;2023-07-13T02:30:40;17.70;1.00
429;DHT22;201;48.758;9.290;2023-07-13T02:33:05;17.70;1.00
429;DHT22;201;48.758;9.290;2023-07-13T02:35:31;17.60;1.00
429;DHT22;201;48.758;9.290;2023-07-13T02:37:57;17.60;1.00
429;DHT22;201;48.758;9.290;2023-07-13T02:40:22;17.60;1.00
429;DHT22;201;48.758;9.290;2023-07-13T02:42:48;17.50;1.00
429;DHT22;201;48.758;9.290;2023-07-13T02:45:14;17.40;1.00
429;DHT22;201;48.758;9.290;2023-07-13T02:47:41;17.40;1.00
429;DHT22;201;48.758;9.290;2023-07-13T02:50:07;17.30;1.00
429;DHT22;201;48.758;9.290;2023-07-13T02:52:33;17.30;1.00
429;DHT22;201;48.758;9.290;2023-07-13T02:54:59;17.20;1.00
429;DHT22;201;48.758;9.290;2023-07-13T02:57:24;17.10;1.00
429;DHT22;201;48.758;9.290;2023-07-13T02:59:50;17.00;1.00
429;DHT22;201;48.758;9.290;2023-07-13T03:02:16;17.00;1.00
429;DHT22;201;48.758;9.290;2023-07-13T03:04:41;17.00;1.00
429;DHT22;201;48.758;9.290;2023-07-13T03:07:08;16.90;1.00
429;DHT22;201;48.758;9.290;2023-07-13T03:09:34;16.90;1.00
429;DHT22;201;48.758;9.290;2023-07-13T03:11:59;16.90;1.00
429;DHT22;201;48.758;9.290;2023-07-13T03:14:25;16.80;1.00
429;DHT22;201;48.758;9.290;2023-07-13T03:16:51;16.80;1.00
429;DHT22;201;48.758;9.290;2023-07-13T03:19:17;16.70;1.00
429;DHT22;201;48.758;9.290;2023-07-13T03:21:43;16.60;1.00
429;DHT22;201;48.758;9.290;2023-07-13T03:24:09;16.60;1.00
429;DHT22;201;48.758;9.290;2023-07-13T03:26:34;16.60;1.00
429;DHT22;201;48.758;9.290;2023-07-13T03:29:00;16.60;1.00
429;DHT22;201;48.758;9.290;2023-07-13T03:31:30;16.60;1.00
429;DHT22;201;48.758;9.290;2023-07-13T03:33:56;16.60;1.00
429;DHT22;201;48.758;9.290;2023-07-13T03:36:25;16.70;1.00
429;DHT22;201;48.758;9.290;2023-07-13T03:38:54;16.80;1.00
429;DHT22;201;48.758;9.290;2023-07-13T03:41:20;16.90;1.00
429;DHT22;201;48.758;9.290;2023-07-13T03:43:46;17.00;1.00
429;DHT22;201;48.758;9.290;2023-07-13T03:46:13;17.00;1.00
429;DHT22;201;48.758;9.290;2023-07-13T03:48:43;17.10;1.00
429;DHT22;201;48.758;9.290;2023-07-13T03:51:11;17.10;1.00
429;DHT22;201;48.758;9.290;2023-07-13T03:53:39;17.20;1.00
429;DHT22;201;48.758;9.290;2023-07-13T03:56:06;17.20;1.00
429;DHT22;201;48.758;9.290;2023-07-13T03:58:32;17.30;1.00
429;DHT22;201;48.758;9.290;2023-07-13T04:00:59;17.40;1.00
429;DHT22;201;48.758;9.290;2023-07-13T04:03:25;17.50;1.00
429;DHT22;201;48.758;9.290;2023-07-13T04:05:53;17.60;1.00
429;DHT22;201;48.758;9.290;2023-07-13T04:08:19;17.70;1.00
429;DHT22;201;48.758;9.290;2023-07-13T04:10:44;17.80;1.00
429;DHT22;201;48.758;9.290;2023-07-13T04:13:10;17.90;1.00
429;DHT22;201;48.758;9.290;2023-07-13T04:15:35;18.00;1.00
429;DHT22;201;48.758;9.290;2023-07-13T04:18:01;18.00;1.00
429;DHT22;201;48.758;9.290;2023-07-13T04:20:28;18.00;1.00
429;DHT22;201;48.758;9.290;2023-07-13T04:22:54;18.10;1.00
429;DHT22;201;48.758;9.290;2023-07-13T04:25:21;18.20;1.00
429;DHT22;201;48.758;9.290;2023-07-13T04:27:47;18.20;1.00
429;DHT22;201;48.758;9.290;2023-07-13T04:30:12;18.30;1.00
429;DHT22;201;48.758;9.290;2023-07-13T04:32:38;18.40;1.00
429;DHT22;201;48.758;9.290;2023-07-13T04:35:04;18.40;1.00
429;DHT22;201;48.758;9.290;2023-07-13T04:37:29;18.50;1.00
429;DHT22;201;48.758;9.290;2023-07-13T04:39:55;18.60;1.00
429;DHT22;201;48.758;9.290;2023-07-13T04:42:20;18.60;1.00
429;DHT22;201;48.758;9.290;2023-07-13T04:44:50;18.70;1.00
429;DHT22;201;48.758;9.290;2023-07-13T04:47:16;18.70;1.00
429;DHT22;201;48.758;9.290;2023-07-13T04:49:42;18.70;1.00
429;DHT22;201;48.758;9.290;2023-07-13T04:52:07;18.80;1.00
429;DHT22;201;48.758;9.290;2023-07-13T04:54:34;18.80;1.00
429;DHT22;201;48.758;9.290;2023-07-13T04:56:59;18.80;1.00
429;DHT22;201;48.758;9.290;2023-07-13T04:59:25;18.80;1.00
429;DHT22;201;48.758;9.290;2023-07-13T05:01:51;18.80;1.00
429;DHT22;201;48.758;9.290;2023-07-13T05:04:16;18.80;1.00
429;DHT22;201;48.758;9.290;2023-07-13T05:06:42;18.90;1.00
429;DHT22;201;48.758;9.290;2023-07-13T05:09:07;18.90;1.00
429;DHT22;201;48.758;9.290;2023-07-13T05:11:33;18.90;1.00
429;DHT22;201;48.758;9.290;2023-07-13T05:13:58;19.00;1.00
429;DHT22;201;48.758;9.290;2023-07-13T05:16:24;19.00;1.00
429;DHT22;201;48.758;9.290;2023-07-13T05:18:49;19.10;1.00
429;DHT22;201;48.758;9.290;2023-07-13T05:21:15;19.20;1.00
429;DHT22;201;48.758;9.290;2023-07-13T05:23:41;19.20;1.00
429;DHT22;201;48.758;9.290;2023-07-13T05:26:10;19.30;1.00
429;DHT22;201;48.758;9.290;2023-07-13T05:28:37;19.30;1.00
429;DHT22;201;48.758;9.290;2023-07-13T05:31:03;19.50;1.00
429;DHT22;201;48.758;9.290;2023-07-13T05:33:29;19.50;1.00
429;DHT22;201;48.758;9.290;2023-07-13T05:35:54;19.60;1.00
429;DHT22;201;48.758;9.290;2023-07-13T05:38:20;19.80;1.00
429;DHT22;201;48.758;9.290;2023-07-13T05:40:46;19.80;1.00
429;DHT22;201;48.758;9.290;2023-07-13T05:43:13;20.00;1.00
429;DHT22;201;48.758;9.290;2023-07-13T05:45:39;20.10;1.00
429;DHT22;201;48.758;9.290;2023-07-13T05:48:05;20.00;1.00
429;DHT22;201;48.758;9.290;2023-07-13T05:50:30;20.00;1.00
429;DHT22;201;48.758;9.290;2023-07-13T05:52:57;20.00;1.00
429;DHT22;201;48.758;9.290;2023-07-13T05:55:22;20.00;1.00
429;DHT22;201;48.758;9.290;2023-07-13T05:57:48;20.00;1.00
429;DHT22;201;48.758;9.290;2023-07-13T06:00:14;19.90;1.00
429;DHT22;201;48.758;9.290;2023-07-13T06:02:39;19.90;1.00
429;DHT22;201;48.758;9.290;2023-07-13T06:05:05;19.90;1.00
429;DHT22;201;48.758;9.290;2023-07-13T06:07:31;20.00;1.00
429;DHT22;201;48.758;9.290;2023-07-13T06:09:56;20.10;1.00
429;DHT22;201;48.758;9.290;2023-07-13T06:12:24;20.20;1.00
429;DHT22;201;48.758;9.290;2023-07-13T06:14:50;20.30;1.00
429;DHT22;201;48.758;9.290;2023-07-13T06:17:15;20.30;1.00
429;DHT22;201;48.758;9.290;2023-07-13T06:19:41;20.60;1.00
429;DHT22;201;48.758;9.290;2023-07-13T06:22:06;21.70;1.00
429;DHT22;201;48.758;9.290;2023-07-13T06:24:32;23.30;1.00
429;DHT22;201;48.758;9.290;2023-07-13T06:26:57;24.80;1.00
429;DHT22;201;48.758;9.290;2023-07-13T06:29:23;25.30;1.00
429;DHT22;201;48.758;9.290;2023-07-13T06:31:48;25.90;1.00
429;DHT22;201;48.758;9.290;2023-07-13T06:34:14;26.30;1.00
429;DHT22;201;48.758;9.290;2023-07-13T06:36:39;26.90;1.00
429;DHT22;201;48.758;9.290;2023-07-13T06:39:06;27.90;1.00
429;DHT22;201;48.758;9.290;2023-07-13T06:41:32;29.10;1.00
429;DHT22;201;48.758;9.290;2023-07-13T06:43:58;29.80;1.00
429;DHT22;201;48.758;9.290;2023-07-13T06:46:24;30.50;1.00
429;DHT22;201;48.758;9.290;2023-07-13T06:48:50;30.40;1.00
429;DHT22;201;48.758;9.290;2023-07-13T06:51:16;29.90;1.00
429;DHT22;201;48.758;9.290;2023-07-13T06:53:41;30.60;1.00
429;DHT22;201;48.758;9.290;2023-07-13T06:56:09;31.60;1.00
429;DHT22;201;48.758;9.290;2023-07-13T06:58:36;32.30;1.00
429;DHT22;201;48.758;9.290;2023-07-13T07:01:02;32.60;1.00
429;DHT22;201;48.758;9.290;2023-07-13T07:03:27;33.20;1.00
429;DHT22;201;48.758;9.290;2023-07-13T07:05:53;33.70;1.00
429;DHT22;201;48.758;9.290;2023-07-13T07:08:18;34.40;1.00
429;DHT22;201;48.758;9.290;2023-07-13T07:10:44;35.30;1.00
429;DHT22;201;48.758;9.290;2023-07-13T07:13:10;34.90;1.00
429;DHT22;201;48.758;9.290;2023-07-13T07:15:36;35.40;1.00
429;DHT22;201;48.758;9.290;2023-07-13T07:18:02;36.40;1.00
429;DHT22;201;48.758;9.290;2023-07-13T07:20:27;36.00;1.00
429;DHT22;201;48.758;9.290;2023-07-13T07:22:53;35.30;1.00
429;DHT22;201;48.758;9.290;2023-07-13T07:25:19;34.80;1.00
429;DHT22;201;48.758;9.290;2023-07-13T07:27:45;34.10;1.00
429;DHT22;201;48.758;9.290;2023-07-13T07:30:10;34.40;1.00
429;DHT22;201;48.758;9.290;2023-07-13T07:32:36;33.80;1.00
429;DHT22;201;48.758;9.290;2023-07-13T07:35:02;34.70;1.00
429;DHT22;201;48.758;9.290;2023-07-13T07:37:28;35.10;1.00
429;DHT22;201;48.758;9.290;2023-07-13T07:39:53;35.50;1.00
429;DHT22;201;48.758;9.290;2023-07-13T07:42:19;35.30;1.00
429;DHT22;201;48.758;9.290;2023-07-13T07:44:44;34.00;1.00
429;DHT22;201;48.758;9.290;2023-07-13T07:47:10;34.70;1.00
429;DHT22;201;48.758;9.290;2023-07-13T07:49:36;35.10;1.00
429;DHT22;201;48.758;9.290;2023-07-13T07:52:02;35.50;1.00
429;DHT22;201;48.758;9.290;2023-07-13T07:54:28;36.20;1.00
429;DHT22;201;48.758;9.290;2023-07-13T07:56:53;37.00;1.00
429;DHT22;201;48.758;9.290;2023-07-13T07:59:19;38.10;1.00
429;DHT22;201;48.758;9.290;2023-07-13T08:01:45;38.40;1.00
429;DHT22;201;48.758;9.290;2023-07-13T08:04:12;38.50;1.00
429;DHT22;201;48.758;9.290;2023-07-13T08:06:37;38.50;1.00
429;DHT22;201;48.758;9.290;2023-07-13T08:09:03;39.30;1.00
429;DHT22;201;48.758;9.290;2023-07-13T08:11:29;39.50;1.00
429;DHT22;201;48.758;9.290;2023-07-13T08:13:55;40.10;1.00
429;DHT22;201;48.758;9.290;2023-07-13T08:16:21;40.00;1.00
429;DHT22;201;48.758;9.290;2023-07-13T08:18:47;38.70;1.00
429;DHT22;201;48.758;9.290;2023-07-13T08:21:12;39.00;1.00
429;DHT22;201;48.758;9.290;2023-07-13T08:23:38;39.60;1.00
429;DHT22;201;48.758;9.290;2023-07-13T08:26:04;39.40;1.00
429;DHT22;201;48.758;9.290;2023-07-13T08:28:30;39.30;1.00
429;DHT22;201;48.758;9.290;2023-07-13T08:31:05;40.20;1.00
429;DHT22;201;48.758;9.290;2023-07-13T08:33:31;41.00;1.00
429;DHT22;201;48.758;9.290;2023-07-13T08:35:56;41.10;1.00
429;DHT22;201;48.758;9.290;2023-07-13T08:38:22;40.50;1.00
429;DHT22;201;48.758;9.290;2023-07-13T08:40:52;40.80;1.00
429;DHT22;201;48.758;9.290;2023-07-13T08:43:22;41.20;1.00
429;DHT22;201;48.758;9.290;2023-07-13T08:45:54;40.40;1.00
429;DHT22;201;48.758;9.290;2023-07-13T08:48:25;41.40;1.00
429;DHT22;201;48.758;9.290;2023-07-13T08:51:01;42.10;1.00
429;DHT22;201;48.758;9.290;2023-07-13T08:53:38;41.80;1.00
429;DHT22;201;48.758;9.290;2023-07-13T08:56:12;41.30;1.00
429;DHT22;201;48.758;9.290;2023-07-13T08:58:42;39.20;1.00
429;DHT22;201;48.758;9.290;2023-07-13T09:04:02;39.70;1.00
429;DHT22;201;48.758;9.290;2023-07-13T09:13:07;34.90;1.00
429;DHT22;201;48.758;9.290;2023-07-13T09:15:30;33.80;1.00
429;DHT22;201;48.758;9.290;2023-07-13T09:18:03;32.40;1.00
429;DHT22;201;48.758;9.290;2023-07-13T09:20:44;33.10;1.00
429;DHT22;201;48.758;9.290;2023-07-13T09:23:15;33.10;1.00
429;DHT22;201;48.758;9.290;2023-07-13T09:25:47;31.30;1.00
429;DHT22;201;48.758;9.290;2023-07-13T09:28:19;30.30;1.00
429;DHT22;201;48.758;9.290;2023-07-13T09:31:10;30.90;1.00
429;DHT22;201;48.758;9.290;2023-07-13T09:33:38;31.60;1.00
429;DHT22;201;48.758;9.290;2023-07-13T09:36:24;33.40;1.00
429;DHT22;201;48.758;9.290;2023-07-13T09:41:47;32.30;1.00
429;DHT22;201;48.758;9.290;2023-07-13T09:44:16;30.30;1.00
429;DHT22;201;48.758;9.290;2023-07-13T09:46:55;30.50;1.00
429;DHT22;201;48.758;9.290;2023-07-13T09:49:25;31.30;1.00
429;DHT22;201;48.758;9.290;2023-07-13T09:51:58;33.60;1.00
429;DHT22;201;48.758;9.290;2023-07-13T09:54:26;33.40;1.00
429;DHT22;201;48.758;9.290;2023-07-13T09:57:01;32.80;1.00
429;DHT22;201;48.758;9.290;2023-07-13T09:59:31;34.30;1.00
429;DHT22;201;48.758;9.290;2023-07-13T10:01:56;34.90;1.00
429;DHT22;201;48.758;9.290;2023-07-13T10:04:29;36.50;1.00
429;DHT22;201;48.758;9.290;2023-07-13T10:07:06;38.20;1.00
429;DHT22;201;48.758;9.290;2023-07-13T10:09:32;37.30;1.00
429;DHT22;201;48.758;9.290;2023-07-13T10:11:57;36.10;1.00
429;DHT22;201;48.758;9.290;2023-07-13T10:14:23;34.20;1.00
429;DHT22;201;48.758;9.290;2023-07-13T10:16:55;32.90;1.00
429;DHT22;201;48.758;9.290;2023-07-13T10:19:25;31.40;1.00
429;DHT22;201;48.758;9.290;2023-07-13T10:22:21;31.60;1.00
429;DHT22;201;48.758;9.290;2023-07-13T10:24:41;32.40;1.00
429;DHT22;201;48.758;9.290;2023-07-13T10:27:20;33.30;1.00
429;DHT22;201;48.758;9.290;2023-07-13T10:32:40;36.30;1.00
429;DHT22;201;48.758;9.290;2023-07-13T10:35:10;37.40;1.00
429;DHT22;201;48.758;9.290;2023-07-13T10:37:52;38.40;1.00
429;DHT22;201;48.758;9.290;2023-07-13T10:40:26;38.70;1.00
429;DHT22;201;48.758;9.290;2023-07-13T10:42:55;39.00;1.00
429;DHT22;201;48.758;9.290;2023-07-13T10:45:23;39.80;1.00
429;DHT22;201;48.758;9.290;2023-07-13T10:47:51;39.30;1.00
429;DHT22;201;48.758;9.290;2023-07-13T10:50:29;38.20;1.00
429;DHT22;201;48.758;9.290;2023-07-13T10:53:28;36.90;1.00
429;DHT22;201;48.758;9.290;2023-07-13T10:56:02;35.20;1.00
429;DHT22;201;48.758;9.290;2023-07-13T10:58:44;33.30;1.00
429;DHT22;201;48.758;9.290;2023-07-13T11:01:14;31.90;1.00
429;DHT22;201;48.758;9.290;2023-07-13T11:08:57;29.90;1.00
429;DHT22;201;48.758;9.290;2023-07-13T11:18:53;29.50;1.00
429;DHT22;201;48.758;9.290;2023-07-13T11:21:34;29.40;1.00
429;DHT22;201;48.758;9.290;2023-07-13T11:24:14;29.20;1.00
429;DHT22;201;48.758;9.290;2023-07-13T11:26:50;28.50;1.00
429;DHT22;201;48.758;9.290;2023-07-13T11:31:58;28.30;1.00
429;DHT22;201;48.758;9.290;2023-07-13T11:34:31;28.40;1.00
429;DHT22;201;48.758;9.290;2023-07-13T11:36:59;27.80;1.00
429;DHT22;201;48.758;9.290;2023-07-13T11:39:32;27.70;1.00
429;DHT22;201;48.758;9.290;2023-07-13T11:42:01;27.60;1.00
429;DHT22;201;48.758;9.290;2023-07-13T11:44:30;27.30;1.00
429;DHT22;201;48.758;9.290;2023-07-13T11:46:58;27.20;1.00
429;DHT22;201;48.758;9.290;2023-07-13T11:49:31;26.60;1.00
429;DHT22;201;48.758;9.290;2023-07-13T11:51:58;26.00;1.00
429;DHT22;201;48.758;9.290;2023-07-13T11:54:32;25.90;1.00
429;DHT22;201;48.758;9.290;2023-07-13T11:57:31;25.80;1.00
429;DHT22;201;48.758;9.290;2023-07-13T12:00:02;25.60;1.00
429;DHT22;201;48.758;9.290;2023-07-13T12:02:32;25.30;1.00
429;DHT22;201;48.758;9.290;2023-07-13T12:04:59;25.10;1.00
429;DHT22;201;48.758;9.290;2023-07-13T12:07:29;25.40;1.00
429;DHT22;201;48.758;9.290;2023-07-13T12:10:21;25.30;1.00
429;DHT22;201;48.758;9.290;2023-07-13T12:12:54;25.80;1.00
429;DHT22;201;48.758;9.290;2023-07-13T12:15:21;25.80;1.00
429;DHT22;201;48.758;9.290;2023-07-13T12:17:48;25.70;1.00
429;DHT22;201;48.758;9.290;2023-07-13T12:20:26;25.60;1.00
429;DHT22;201;48.758;9.290;2023-07-13T12:22:52;25.30;1.00
429;DHT22;201;48.758;9.290;2023-07-13T12:25:19;25.60;1.00
429;DHT22;201;48.758;9.290;2023-07-13T12:27:49;25.60;1.00
429;DHT22;201;48.758;9.290;2023-07-13T12:30:32;25.40;1.00
429;DHT22;201;48.758;9.290;2023-07-13T12:33:02;25.50;1.00
429;DHT22;201;48.758;9.290;2023-07-13T12:35:59;25.50;1.00
429;DHT22;201;48.758;9.290;2023-07-13T12:38:25;25.30;1.00
429;DHT22;201;48.758;9.290;2023-07-13T12:40:52;25.40;1.00
429;DHT22;201;48.758;9.290;2023-07-13T12:43:20;25.80;1.00
429;DHT22;201;48.758;9.290;2023-07-13T12:46:00;26.30;1.00
429;DHT22;201;48.758;9.290;2023-07-13T12:48:26;26.70;1.00
429;DHT22;201;48.758;9.290;2023-07-13T12:50:53;27.10;1.00
429;DHT22;201;48.758;9.290;2023-07-13T12:53:22;27.50;1.00
429;DHT22;201;48.758;9.290;2023-07-13T12:55:57;27.70;1.00
429;DHT22;201;48.758;9.290;2023-07-13T12:58:36;27.80;1.00
429;DHT22;201;48.758;9.290;2023-07-13T13:01:04;27.00;1.00
429;DHT22;201;48.758;9.290;2023-07-13T13:03:39;26.10;1.00
429;DHT22;201;48.758;9.290;2023-07-13T13:06:21;25.70;1.00
429;DHT22;201;48.758;9.290;2023-07-13T13:08:51;25.40;1.00
429;DHT22;201;48.758;9.290;2023-07-13T13:11:17;25.30;1.00
429;DHT22;201;48.758;9.290;2023-07-13T13:13:43;25.30;1.00
429;DHT22;201;48.758;9.290;2023-07-13T13:16:19;25.70;1.00
429;DHT22;201;48.758;9.290;2023-07-13T13:18:45;26.00;1.00
429;DHT22;201;48.758;9.290;2023-07-13T13:21:11;26.20;1.00
429;DHT22;201;48.758;9.290;2023-07-13T13:23:37;26.50;1.00
429;DHT22;201;48.758;9.290;2023-07-13T13:26:04;26.90;1.00
429;DHT22;201;48.758;9.290;2023-07-13T13:28:31;27.00;1.00
429;DHT22;201;48.758;9.290;2023-07-13T13:30:57;26.20;1.00
429;DHT22;201;48.758;9.290;2023-07-13T13:33:23;25.60;1.00
429;DHT22;201;48.758;9.290;2023-07-13T13:35:49;25.20;1.00
429;DHT22;201;48.758;9.290;2023-07-13T13:38:17;25.60;1.00
429;DHT22;201;48.758;9.290;2023-07-13T13:40:44;26.00;1.00
429;DHT22;201;48.758;9.290;2023-07-13T13:43:17;26.10;1.00
429;DHT22;201;48.758;9.290;2023-07-13T13:45:43;26.10;1.00
429;DHT22;201;48.758;9.290;2023-07-13T13:48:20;26.00;1.00
429;DHT22;201;48.758;9.290;2023-07-13T13:50:48;26.00;1.00
429;DHT22;201;48.758;9.290;2023-07-13T13:53:14;26.40;1.00
429;DHT22;201;48.758;9.290;2023-07-13T13:55:40;26.80;1.00
429;DHT22;201;48.758;9.290;2023-07-13T13:58:08;27.00;1.00
429;DHT22;201;48.758;9.290;2023-07-13T14:00:34;26.90;1.00
429;DHT22;201;48.758;9.290;2023-07-13T14:03:00;26.60;1.00
429;DHT22;201;48.758;9.290;2023-07-13T14:05:26;26.80;1.00
429;DHT22;201;48.758;9.290;2023-07-13T14:07:52;27.10;1.00
429;DHT22;201;48.758;9.290;2023-07-13T14:10:19;27.00;1.00
429;DHT22;201;48.758;9.290;2023-07-13T14:12:51;26.50;1.00
429;DHT22;201;48.758;9.290;2023-07-13T14:17:45;26.60;1.00
429;DHT22;201;48.758;9.290;2023-07-13T14:20:11;26.80;1.00
429;DHT22;201;48.758;9.290;2023-07-13T14:22:37;26.70;1.00
429;DHT22;201;48.758;9.290;2023-07-13T14:25:03;26.60;1.00
429;DHT22;201;48.758;9.290;2023-07-13T14:27:29;26.30;1.00
429;DHT22;201;48.758;9.290;2023-07-13T14:29:54;26.20;1.00
429;DHT22;201;48.758;9.290;2023-07-13T14:32:20;26.20;1.00
429;DHT22;201;48.758;9.290;2023-07-13T14:34:45;26.40;1.00
429;DHT22;201;48.758;9.290;2023-07-13T14:37:15;26.20;1.00
429;DHT22;201;48.758;9.290;2023-07-13T14:39:43;26.10;1.00
429;DHT22;201;48.758;9.290;2023-07-13T14:42:10;25.70;1.00
429;DHT22;201;48.758;9.290;2023-07-13T14:44:37;25.60;1.00
429;DHT22;201;48.758;9.290;2023-07-13T14:47:05;25.70;1.00
429;DHT22;201;48.758;9.290;2023-07-13T14:49:38;25.70;1.00
429;DHT22;201;48.758;9.290;2023-07-13T14:52:16;25.50;1.00
429;DHT22;201;48.758;9.290;2023-07-13T14:54:42;25.40;1.00
429;DHT22;201;48.758;9.290;2023-07-13T14:57:18;25.20;1.00
429;DHT22;201;48.758;9.290;2023-07-13T14:59:44;25.10;1.00
429;DHT22;201;48.758;9.290;2023-07-13T15:02:32;25.10;1.00
429;DHT22;201;48.758;9.290;2023-07-13T15:04:58;24.90;1.00
429;DHT22;201;48.758;9.290;2023-07-13T15:07:24;24.80;1.00
429;DHT22;201;48.758;9.290;2023-07-13T15:09:50;24.60;1.00
429;DHT22;201;48.758;9.290;2023-07-13T15:12:16;24.50;1.00
429;DHT22;201;48.758;9.290;2023-07-13T15:14:42;24.70;1.00
429;DHT22;201;48.758;9.290;2023-07-13T15:17:28;24.80;1.00
429;DHT22;201;48.758;9.290;2023-07-13T15:19:55;25.00;1.00
429;DHT22;201;48.758;9.290;2023-07-13T15:22:21;25.30;1.00
429;DHT22;201;48.758;9.290;2023-07-13T15:24:47;25.50;1.00
429;DHT22;201;48.758;9.290;2023-07-13T15:27:12;26.00;1.00
429;DHT22;201;48.758;9.290;2023-07-13T15:29:38;26.20;1.00
429;DHT22;201;48.758;9.290;2023-07-13T15:32:12;26.10;1.00
429;DHT22;201;48.758;9.290;2023-07-13T15:34:38;26.20;1.00
429;DHT22;201;48.758;9.290;2023-07-13T15:37:08;26.30;1.00
429;DHT22;201;48.758;9.290;2023-07-13T15:39:36;26.40;1.00
429;DHT22;201;48.758;9.290;2023-07-13T15:42:03;26.30;1.00
429;DHT22;201;48.758;9.290;2023-07-13T15:44:29;26.00;1.00
429;DHT22;201;48.758;9.290;2023-07-13T15:46:56;25.90;1.00
429;DHT22;201;48.758;9.290;2023-07-13T15:49:22;25.70;1.00
429;DHT22;201;48.758;9.290;2023-07-13T15:51:48;25.70;1.00
429;DHT22;201;48.758;9.290;2023-07-13T15:54:15;25.70;1.00
429;DHT22;201;48.758;9.290;2023-07-13T15:56:42;25.60;1.00
429;DHT22;201;48.758;9.290;2023-07-13T15:59:11;25.80;1.00
429;DHT22;201;48.758;9.290;2023-07-13T16:01:40;26.00;1.00
429;DHT22;201;48.758;9.290;2023-07-13T16:04:07;26.20;1.00
429;DHT22;201;48.758;9.290;2023-07-13T16:06:35;26.50;1.00
429;DHT22;201;48.758;9.290;2023-07-13T16:09:02;26.70;1.00
429;DHT22;201;48.758;9.290;2023-07-13T16:11:36;26.80;1.00
429;DHT22;201;48.758;9.290;2023-07-13T16:14:03;26.80;1.00
429;DHT22;201;48.758;9.290;2023-07-13T16:16:32;26.60;1.00
429;DHT22;201;48.758;9.290;2023-07-13T16:19:01;26.50;1.00
429;DHT22;201;48.758;9.290;2023-07-13T16:21:28;26.30;1.00
429;DHT22;201;48.758;9.290;2023-07-13T16:23:55;26.30;1.00
429;DHT22;201;48.758;9.290;2023-07-13T16:26:34;26.30;1.00
429;DHT22;201;48.758;9.290;2023-07-13T16:29:16;26.30;1.00
429;DHT22;201;48.758;9.290;2023-07-13T16:31:54;26.10;1.00
429;DHT22;201;48.758;9.290;2023-07-13T16:34:20;26.00;1.00
429;DHT22;201;48.758;9.290;2023-07-13T16:36:45;26.00;1.00
429;DHT22;201;48.758;9.290;2023-07-13T16:39:12;25.80;1.00
429;DHT22;201;48.758;9.290;2023-07-13T16:41:38;25.80;1.00
429;DHT22;201;48.758;9.290;2023-07-13T16:44:16;25.70;1.00
429;DHT22;201;48.758;9.290;2023-07-13T16:46:44;25.60;1.00
429;DHT22;201;48.758;9.290;2023-07-13T16:49:26;25.40;1.00
429;DHT22;201;48.758;9.290;2023-07-13T16:51:54;25.20;1.00
429;DHT22;201;48.758;9.290;2023-07-13T16:54:21;25.00;1.00
429;DHT22;201;48.758;9.290;2023-07-13T16:56:48;24.90;1.00
429;DHT22;201;48.758;9.290;2023-07-13T16:59:18;24.90;1.00
429;DHT22;201;48.758;9.290;2023-07-13T17:01:45;25.00;1.00
429;DHT22;201;48.758;9.290;2023-07-13T17:04:14;24.80;1.00
429;DHT22;201;48.758;9.290;2023-07-13T17:06:41;24.70;1.00
429;DHT22;201;48.758;9.290;2023-07-13T17:09:12;24.50;1.00
429;DHT22;201;48.758;9.290;2023-07-13T17:11:42;24.50;1.00
429;DHT22;201;48.758;9.290;2023-07-13T17:14:19;24.50;1.00
429;DHT22;201;48.758;9.290;2023-07-13T17:16:50;24.50;1.00
429;DHT22;201;48.758;9.290;2023-07-13T17:19:18;24.50;1.00
429;DHT22;201;48.758;9.290;2023-07-13T17:21:45;24.50;1.00
429;DHT22;201;48.758;9.290;2023-07-13T17:24:36;24.50;1.00
429;DHT22;201;48.758;9.290;2023-07-13T17:27:01;24.50;1.00
429;DHT22;201;48.758;9.290;2023-07-13T17:29:27;24.40;1.00
429;DHT22;201;48.758;9.290;2023-07-13T17:31:52;24.40;1.00
429;DHT22;201;48.758;9.290;2023-07-13T17:34:18;24.30;1.00